createdAt,value
2018-02-01T00:00:39.534Z,93.17
2018-02-01T00:01:40.145Z,92.79
2018-02-01T00:02:39.478Z,92.68
2018-02-01T00:03:39.316Z,92.58
2018-02-01T00:04:39.442Z,92.41
2018-02-01T00:05:39.433Z,92.12
2018-02-01T00:06:40.407Z,92.56
2018-02-01T00:07:39.465Z,92.53
2018-02-01T00:08:39.963Z,92.4
2018-02-01T00:09:39.322Z,92.09
2018-02-01T00:10:39.388Z,92.51
2018-02-01T00:11:39.890Z,91.73
2018-02-01T00:12:39.384Z,91.79
2018-02-01T00:13:39.316Z,92.03
2018-02-01T00:14:39.235Z,91.76
2018-02-01T00:15:39.308Z,91.86
2018-02-01T00:16:39.258Z,92.22
2018-02-01T00:17:39.173Z,92.03
2018-02-01T00:18:39.203Z,92.71
2018-02-01T00:19:39.273Z,92.58
2018-02-01T00:20:40.066Z,92.29
2018-02-01T00:21:39.507Z,92.31
2018-02-01T00:22:39.377Z,91.91
2018-02-01T00:23:39.237Z,90.67
2018-02-01T00:24:39.310Z,90.86
2018-02-01T00:25:39.772Z,91.15
2018-02-01T00:26:39.370Z,91.01
2018-02-01T00:27:39.278Z,90.96
2018-02-01T00:28:39.384Z,90.93
2018-02-01T00:29:39.214Z,91.09
2018-02-01T00:30:39.347Z,90.95
2018-02-01T00:31:39.233Z,91.23
2018-02-01T00:32:40.264Z,91.72
2018-02-01T00:33:39.294Z,91.44
2018-02-01T00:34:39.460Z,91.47
2018-02-01T00:35:39.943Z,91.69
2018-02-01T00:36:39.273Z,91.73
2018-02-01T00:37:40.267Z,91.68
2018-02-01T00:38:39.251Z,91.31
2018-02-01T00:39:39.471Z,91.15
2018-02-01T00:40:40.518Z,91.81
2018-02-01T00:41:39.544Z,91.53
2018-02-01T00:42:40.355Z,91.21
2018-02-01T00:43:39.406Z,91.21
2018-02-01T00:44:41.648Z,91.17
2018-02-01T00:45:39.696Z,91.57
2018-02-01T00:46:39.553Z,91.09
2018-02-01T00:47:39.508Z,91.41
2018-02-01T00:48:39.976Z,91.57
2018-02-01T00:49:40.279Z,91.09
2018-02-01T00:50:39.624Z,91.07
2018-02-01T00:51:39.659Z,91.15
2018-02-01T00:52:39.655Z,91.44
2018-02-01T00:53:40.125Z,91.71
2018-02-01T00:54:39.510Z,91.94
2018-02-01T00:55:39.540Z,91.96
2018-02-01T00:56:39.568Z,92.15
2018-02-01T00:57:39.792Z,92.13
2018-02-01T00:58:39.500Z,92.27
2018-02-01T00:59:39.669Z,91.92
2018-02-01T01:00:39.633Z,92.33
2018-02-01T01:01:39.641Z,91.9
2018-02-01T01:02:39.314Z,92.25
2018-02-01T01:03:39.731Z,92.09
2018-02-01T01:04:39.582Z,92.1
2018-02-01T01:05:40.643Z,91.65
2018-02-01T01:06:40.209Z,92.02
2018-02-01T01:07:39.413Z,92.16
2018-02-01T01:08:39.378Z,92.04
2018-02-01T01:09:39.459Z,92.05
2018-02-01T01:10:41.579Z,92
2018-02-01T01:11:40.418Z,92.1
2018-02-01T01:12:40.243Z,92.09
2018-02-01T01:13:39.515Z,92.26
2018-02-01T01:14:41.333Z,91.77
2018-02-01T01:15:40.222Z,91.6
2018-02-01T01:16:39.623Z,91.86
2018-02-01T01:17:40.550Z,91.42
2018-02-01T01:18:39.451Z,91.19
2018-02-01T01:19:39.869Z,91.42
2018-02-01T01:20:39.607Z,91.84
2018-02-01T01:21:39.704Z,91.81
2018-02-01T01:22:39.556Z,91.89
2018-02-01T01:23:40.223Z,92.16
2018-02-01T01:24:40.204Z,92.1
2018-02-01T01:25:40.233Z,92.08
2018-02-01T01:26:39.490Z,92.12
2018-02-01T01:27:39.752Z,92.22
2018-02-01T01:28:39.426Z,91.91
2018-02-01T01:29:39.582Z,91.9
2018-02-01T01:30:39.580Z,92.11
2018-02-01T01:31:40.346Z,92.52
2018-02-01T01:32:40.298Z,92.31
2018-02-01T01:33:39.622Z,92.56
2018-02-01T01:34:40.274Z,92.72
2018-02-01T01:35:40.626Z,92.6
2018-02-01T01:36:39.720Z,92.56
2018-02-01T01:37:39.485Z,92.61
2018-02-01T01:38:39.654Z,92.48
2018-02-01T01:39:40.379Z,92.31
2018-02-01T01:40:39.646Z,92.03
2018-02-01T01:41:39.814Z,91.84
2018-02-01T01:42:39.611Z,91.99
2018-02-01T01:43:39.791Z,92.03
2018-02-01T01:44:40.138Z,91.99
2018-02-01T01:45:39.648Z,91.9
2018-02-01T01:46:39.482Z,91.81
2018-02-01T01:47:40.230Z,91.63
2018-02-01T01:48:39.542Z,91.51
2018-02-01T01:49:39.596Z,91.92
2018-02-01T01:50:39.522Z,91.66
2018-02-01T01:51:39.744Z,91.8
2018-02-01T01:52:39.865Z,91.82
2018-02-01T01:53:39.596Z,92.05
2018-02-01T01:54:39.624Z,91.93
2018-02-01T01:55:39.592Z,91.78
2018-02-01T01:56:42.148Z,91.97
2018-02-01T01:57:39.522Z,92.22
2018-02-01T01:58:40.286Z,91.96
2018-02-01T01:59:39.792Z,92.24
2018-02-01T02:00:40.911Z,91.15
2018-02-01T02:01:40.453Z,91.99
2018-02-01T02:02:40.208Z,91.61
2018-02-01T02:03:39.447Z,91.83
2018-02-01T02:04:39.550Z,91.74
2018-02-01T02:05:39.851Z,91.52
2018-02-01T02:06:39.531Z,91.97
2018-02-01T02:07:39.511Z,91.61
2018-02-01T02:08:39.610Z,92.16
2018-02-01T02:09:40.210Z,92.36
2018-02-01T02:10:39.629Z,92.11
2018-02-01T02:11:40.108Z,92.41
2018-02-01T02:12:40.572Z,92.71
2018-02-01T02:13:41.503Z,92.73
2018-02-01T02:14:39.967Z,92.21
2018-02-01T02:15:39.671Z,92.14
2018-02-01T02:16:39.699Z,92.73
2018-02-01T02:17:39.635Z,92.71
2018-02-01T02:18:41.024Z,92.39
2018-02-01T02:19:40.784Z,92.45
2018-02-01T02:20:40.106Z,92.5
2018-02-01T02:21:41.571Z,92.71
2018-02-01T02:22:39.779Z,92.76
2018-02-01T02:23:39.875Z,92.75
2018-02-01T02:24:39.730Z,92.46
2018-02-01T02:25:39.602Z,92.74
2018-02-01T02:26:39.609Z,92.61
2018-02-01T02:27:40.380Z,92.66
2018-02-01T02:28:39.845Z,92.66
2018-02-01T02:29:39.881Z,92.16
2018-02-01T02:30:40.310Z,92.13
2018-02-01T02:31:39.579Z,92.06
2018-02-01T02:32:39.578Z,92.07
2018-02-01T02:33:39.923Z,92.11
2018-02-01T02:34:39.851Z,92.22
2018-02-01T02:35:39.402Z,92.04
2018-02-01T02:36:40.142Z,92.09
2018-02-01T02:37:39.960Z,92.09
2018-02-01T02:38:42.195Z,91.84
2018-02-01T02:39:40.006Z,91.68
2018-02-01T02:40:39.727Z,91.39
2018-02-01T02:41:40.081Z,91.56
2018-02-01T02:42:40.906Z,91.46
2018-02-01T02:43:39.542Z,91.67
2018-02-01T02:44:39.624Z,91.92
2018-02-01T02:45:39.770Z,92
2018-02-01T02:46:39.732Z,91.39
2018-02-01T02:47:39.820Z,91.53
2018-02-01T02:51:17.018Z,92.03
2018-02-01T02:51:40.015Z,91.7
2018-02-01T02:52:39.725Z,91.78
2018-02-01T02:53:39.668Z,91.75
2018-02-01T02:54:39.856Z,92.03
2018-02-01T02:55:40.999Z,92.24
2018-02-01T02:56:39.653Z,91.79
2018-02-01T02:57:39.874Z,92.06
2018-02-01T02:58:39.716Z,92.03
2018-02-01T02:59:39.650Z,91.97
2018-02-01T03:00:39.743Z,91.92
2018-02-01T03:01:39.568Z,91.88
2018-02-01T03:02:39.727Z,91.69
2018-02-01T03:03:39.803Z,91.96
2018-02-01T03:04:39.601Z,91.79
2018-02-01T03:05:39.746Z,91.65
2018-02-01T03:06:39.859Z,91.81
2018-02-01T03:07:39.738Z,91.99
2018-02-01T03:08:39.676Z,91.47
2018-02-01T03:09:40.286Z,91.81
2018-02-01T03:10:40.816Z,91.97
2018-02-01T03:11:39.761Z,91.9
2018-02-01T03:12:39.572Z,92.07
2018-02-01T03:13:39.749Z,92.07
2018-02-01T03:14:40.107Z,91.99
2018-02-01T03:15:40.177Z,91.79
2018-02-01T03:16:40.150Z,91.9
2018-02-01T03:17:39.839Z,91.63
2018-02-01T03:18:41.168Z,91.66
2018-02-01T03:19:39.750Z,91.93
2018-02-01T03:20:39.895Z,91.52
2018-02-01T03:21:39.874Z,91.65
2018-02-01T03:22:39.909Z,92.11
2018-02-01T03:23:39.989Z,92.18
2018-02-01T03:24:40.780Z,92.04
2018-02-01T03:25:39.683Z,91.92
2018-02-01T03:26:39.583Z,92.34
2018-02-01T03:27:40.374Z,92.06
2018-02-01T03:28:39.870Z,92.14
2018-02-01T03:29:39.902Z,92.33
2018-02-01T03:30:40.739Z,92.55
2018-02-01T03:31:40.234Z,92.87
2018-02-01T03:32:39.873Z,92.46
2018-02-01T03:33:40.110Z,92.59
2018-02-01T03:34:40.607Z,92.91
2018-02-01T03:35:40.006Z,92.9
2018-02-01T03:36:39.808Z,93.12
2018-02-01T03:37:39.983Z,93.02
2018-02-01T03:38:39.964Z,93.21
2018-02-01T03:39:41.126Z,93.04
2018-02-01T03:40:39.772Z,93.15
2018-02-01T03:41:39.594Z,93.11
2018-02-01T03:42:40.516Z,93.01
2018-02-01T03:43:39.661Z,93.1
2018-02-01T03:44:39.784Z,92.76
2018-02-01T03:45:39.565Z,92.79
2018-02-01T03:46:39.767Z,92.76
2018-02-01T03:47:39.830Z,92.87
2018-02-01T03:48:39.896Z,92.69
2018-02-01T03:49:40.489Z,92.84
2018-02-01T03:50:39.715Z,92.75
2018-02-01T03:51:39.885Z,93.01
2018-02-01T03:52:39.921Z,93.12
2018-02-01T03:55:40.753Z,92.94
2018-02-01T03:56:40.004Z,93.02
2018-02-01T03:57:39.749Z,92.64
2018-02-01T03:58:39.732Z,92.66
2018-02-01T03:59:39.886Z,92.8
2018-02-01T04:00:39.854Z,92.74
2018-02-01T04:01:39.947Z,92.76
2018-02-01T04:02:39.981Z,92.72
2018-02-01T04:03:41.825Z,92.79
2018-02-01T04:04:41.748Z,92.73
2018-02-01T04:05:40.293Z,92.82
2018-02-01T04:06:40.018Z,92.83
2018-02-01T04:07:40.138Z,92.77
2018-02-01T04:08:40.815Z,92.73
2018-02-01T04:09:40.056Z,92.52
2018-02-01T04:10:41.818Z,92.71
2018-02-01T04:11:40.172Z,92.86
2018-02-01T04:12:40.088Z,92.84
2018-02-01T04:13:39.720Z,92.87
2018-02-01T04:14:39.831Z,92.84
2018-02-01T04:15:40.413Z,92.84
2018-02-01T04:16:39.846Z,92.85
2018-02-01T04:17:39.945Z,93.01
2018-02-01T04:18:40.647Z,92.84
2018-02-01T04:19:40.516Z,92.88
2018-02-01T04:20:41.645Z,92.82
2018-02-01T04:21:40.391Z,92.79
2018-02-01T04:22:40.054Z,92.63
2018-02-01T04:23:41.710Z,92.57
2018-02-01T04:24:39.761Z,92.63
2018-02-01T04:25:40.352Z,92.7
2018-02-01T04:26:39.938Z,92.95
2018-02-01T04:27:40.588Z,92.82
2018-02-01T04:28:40.904Z,92.77
2018-02-01T04:29:40.483Z,92.57
2018-02-01T04:30:40.723Z,92.57
2018-02-01T04:31:39.964Z,92.82
2018-02-01T04:32:40.764Z,92.73
2018-02-01T04:33:41.076Z,92.73
2018-02-01T04:34:40.414Z,92.77
2018-02-01T04:35:40.820Z,92.6
2018-02-01T04:36:40.563Z,92.5
2018-02-01T04:37:41.533Z,92.49
2018-02-01T04:38:40.891Z,92.77
2018-02-01T04:39:39.926Z,92.95
2018-02-01T04:40:40.174Z,92.89
2018-02-01T04:41:40.394Z,92.84
2018-02-01T04:42:39.706Z,92.83
2018-02-01T04:43:39.638Z,92.69
2018-02-01T04:44:40.105Z,92.63
2018-02-01T04:45:40.485Z,92.68
2018-02-01T04:46:40.908Z,92.58
2018-02-01T04:47:40.661Z,92.75
2018-02-01T04:48:40.138Z,92.63
2018-02-01T04:52:11.491Z,92.65
2018-02-01T04:52:39.929Z,92.66
2018-02-01T04:53:39.108Z,92.62
2018-02-01T04:54:39.358Z,92.71
2018-02-01T04:55:39.871Z,92.57
2018-02-01T04:56:39.414Z,92.76
2018-02-01T04:57:39.429Z,92.94
2018-02-01T04:58:40.404Z,92.82
2018-02-01T04:59:39.114Z,93.32
2018-02-01T05:00:40.852Z,93.03
2018-02-01T05:01:38.970Z,93.12
2018-02-01T05:02:39.173Z,93.04
2018-02-01T05:03:39.130Z,92.95
2018-02-01T05:04:39.428Z,92.89
2018-02-01T05:05:39.822Z,93.01
2018-02-01T05:06:39.055Z,92.98
2018-02-01T05:07:39.148Z,93.37
2018-02-01T05:08:39.063Z,93.16
2018-02-01T05:09:40.034Z,93.27
2018-02-01T05:10:39.318Z,93.11
2018-02-01T05:11:39.370Z,92.97
2018-02-01T05:12:38.952Z,93.07
2018-02-01T05:13:39.223Z,93.17
2018-02-01T05:14:40.881Z,93.2
2018-02-01T05:15:39.511Z,93.23
2018-02-01T05:16:40.079Z,93.12
2018-02-01T05:17:39.417Z,92.92
2018-02-01T05:18:39.167Z,93.15
2018-02-01T05:19:38.985Z,92.97
2018-02-01T05:20:39.022Z,92.87
2018-02-01T05:21:39.102Z,93.05
2018-02-01T05:22:39.926Z,93.01
2018-02-01T05:23:39.739Z,93.11
2018-02-01T05:24:40.059Z,93.11
2018-02-01T05:25:39.811Z,93.11
2018-02-01T05:26:39.167Z,93.12
2018-02-01T05:27:39.808Z,93.1
2018-02-01T05:28:40.113Z,93.16
2018-02-01T05:29:39.836Z,92.94
2018-02-01T05:30:39.138Z,92.84
2018-02-01T05:31:40.103Z,92.71
2018-02-01T05:32:40.119Z,92.8
2018-02-01T05:33:39.311Z,92.71
2018-02-01T05:34:39.145Z,92.7
2018-02-01T05:35:41.321Z,92.9
2018-02-01T05:36:39.855Z,92.97
2018-02-01T05:37:39.077Z,93.02
2018-02-01T05:38:39.511Z,92.96
2018-02-01T05:39:40.060Z,92.82
2018-02-01T05:40:39.840Z,92.75
2018-02-01T05:42:08.536Z,92.88
2018-02-01T05:42:38.932Z,92.92
2018-02-01T05:43:39.313Z,92.85
2018-02-01T05:44:39.393Z,92.88
2018-02-01T05:45:39.465Z,92.97
2018-02-01T05:46:39.569Z,92.85
2018-02-01T05:47:39.333Z,92.67
2018-02-01T05:48:40.590Z,92.74
2018-02-01T05:49:39.916Z,92.78
2018-02-01T05:50:39.622Z,93.12
2018-02-01T05:51:40.862Z,92.83
2018-02-01T05:52:39.435Z,92.76
2018-02-01T05:53:39.354Z,92.57
2018-02-01T05:54:41.044Z,92.74
2018-02-01T05:55:40.270Z,92.88
2018-02-01T05:56:39.776Z,92.76
2018-02-01T05:57:39.918Z,92.95
2018-02-01T05:58:39.783Z,92.76
2018-02-01T05:59:39.788Z,92.86
2018-02-01T06:00:39.983Z,92.78
2018-02-01T06:01:40.035Z,92.85
2018-02-01T06:02:40.046Z,92.87
2018-02-01T06:03:40.185Z,92.54
2018-02-01T06:04:40.717Z,92.48
2018-02-01T06:05:39.845Z,92.45
2018-02-01T06:06:39.228Z,92.45
2018-02-01T06:07:40.352Z,92.49
2018-02-01T06:08:39.943Z,92.55
2018-02-01T06:09:39.752Z,92.64
2018-02-01T06:10:39.311Z,92.68
2018-02-01T06:11:41.495Z,92.85
2018-02-01T06:12:39.134Z,92.82
2018-02-01T06:13:39.220Z,92.94
2018-02-01T06:14:39.341Z,92.77
2018-02-01T06:15:39.107Z,92.74
2018-02-01T06:16:39.468Z,92.62
2018-02-01T06:17:39.121Z,92.37
2018-02-01T06:18:39.737Z,92.47
2018-02-01T06:19:39.943Z,92.56
2018-02-01T06:20:39.199Z,92.43
2018-02-01T06:21:39.432Z,92.37
2018-02-01T06:22:39.337Z,92.22
2018-02-01T06:23:39.852Z,92.26
2018-02-01T06:24:40.112Z,92.16
2018-02-01T06:25:40.145Z,92.31
2018-02-01T06:26:39.470Z,92.2
2018-02-01T06:27:39.720Z,92.35
2018-02-01T06:28:39.738Z,92.46
2018-02-01T06:29:39.947Z,92.26
2018-02-01T06:30:39.074Z,92.61
2018-02-01T06:31:40.119Z,92.34
2018-02-01T06:32:39.383Z,92.44
2018-02-01T06:33:39.355Z,92.5
2018-02-01T06:34:39.163Z,92.6
2018-02-01T06:35:39.209Z,92.56
2018-02-01T06:36:39.249Z,92.48
2018-02-01T06:37:39.228Z,92.3
2018-02-01T06:38:39.277Z,92.43
2018-02-01T06:39:39.460Z,92.66
2018-02-01T06:40:39.416Z,92.76
2018-02-01T06:41:39.408Z,92.62
2018-02-01T06:42:39.203Z,92.43
2018-02-01T06:43:39.104Z,92.55
2018-02-01T06:44:39.163Z,92.32
2018-02-01T06:45:39.745Z,92.31
2018-02-01T06:46:40.110Z,92.16
2018-02-01T06:47:39.680Z,92.29
2018-02-01T06:48:39.049Z,92.12
2018-02-01T06:49:39.160Z,92.5
2018-02-01T06:50:39.176Z,92.48
2018-02-01T06:51:39.250Z,92.2
2018-02-01T06:52:39.360Z,91.99
2018-02-01T06:53:39.395Z,91.94
2018-02-01T06:54:39.182Z,91.86
2018-02-01T06:55:39.336Z,91.61
2018-02-01T06:56:39.353Z,91.63
2018-02-01T06:57:39.364Z,92
2018-02-01T06:58:39.175Z,92.11
2018-02-01T06:59:39.371Z,92.34
2018-02-01T07:00:39.543Z,92.19
2018-02-01T07:01:39.415Z,91.45
2018-02-01T07:02:39.248Z,91.69
2018-02-01T07:03:39.264Z,91.78
2018-02-01T07:04:39.499Z,91.74
2018-02-01T07:05:39.326Z,91.51
2018-02-01T07:06:39.344Z,91.29
2018-02-01T07:07:39.380Z,91.45
2018-02-01T07:08:39.339Z,91.58
2018-02-01T07:09:39.493Z,91.51
2018-02-01T07:10:39.418Z,91.22
2018-02-01T07:11:39.528Z,91.47
2018-02-01T07:12:39.247Z,91.46
2018-02-01T07:13:39.421Z,91.33
2018-02-01T07:14:39.302Z,91.08
2018-02-01T07:15:39.303Z,91.22
2018-02-01T07:16:39.411Z,91.14
2018-02-01T07:17:39.779Z,91.19
2018-02-01T07:18:39.353Z,91.27
2018-02-01T07:19:39.395Z,91.25
2018-02-01T07:20:39.333Z,90.82
2018-02-01T07:21:39.399Z,90.69
2018-02-01T07:22:39.484Z,90.68
2018-02-01T07:23:39.384Z,90.31
2018-02-01T07:24:39.601Z,90.34
2018-02-01T07:25:39.485Z,90.78
2018-02-01T07:26:39.418Z,91.18
2018-02-01T07:27:39.428Z,91.06
2018-02-01T07:28:39.255Z,91.06
2018-02-01T07:29:39.365Z,90.75
2018-02-01T07:30:39.458Z,91.09
2018-02-01T07:31:39.442Z,91.01
2018-02-01T07:32:39.279Z,90.94
2018-02-01T07:33:39.411Z,90.96
2018-02-01T07:34:39.397Z,90.59
2018-02-01T07:35:39.290Z,90.5
2018-02-01T07:36:39.327Z,90.57
2018-02-01T07:37:39.460Z,90.6
2018-02-01T07:38:39.388Z,90.06
2018-02-01T07:39:39.475Z,90.21
2018-02-01T07:40:39.580Z,90.17
2018-02-01T07:41:39.259Z,90.21
2018-02-01T07:42:39.277Z,90.04
2018-02-01T07:43:39.271Z,90.44
2018-02-01T07:44:39.334Z,90.02
2018-02-01T07:45:39.524Z,90.07
2018-02-01T07:46:39.275Z,90.41
2018-02-01T07:47:39.726Z,90.5
2018-02-01T07:48:39.486Z,90.57
2018-02-01T07:49:39.406Z,90.43
2018-02-01T07:50:39.492Z,90.42
2018-02-01T07:51:39.353Z,90.41
2018-02-01T07:52:40.765Z,90.63
2018-02-01T07:53:39.666Z,90.48
2018-02-01T07:54:39.535Z,90.59
2018-02-01T07:55:39.700Z,90.64
2018-02-01T07:56:39.500Z,90.49
2018-02-01T07:57:39.399Z,89.81
2018-02-01T07:58:39.410Z,90.14
2018-02-01T07:59:39.315Z,90.17
2018-02-01T08:00:39.369Z,90.18
2018-02-01T08:01:39.471Z,90.12
2018-02-01T08:02:39.404Z,90.35
2018-02-01T08:03:40.496Z,90.49
2018-02-01T08:04:39.594Z,90.62
2018-02-01T08:05:39.446Z,90.78
2018-02-01T08:06:39.540Z,90.75
2018-02-01T08:07:39.484Z,90.62
2018-02-01T08:08:40.448Z,90.38
2018-02-01T08:09:39.373Z,90.44
2018-02-01T08:10:39.368Z,90.29
2018-02-01T08:11:39.457Z,90.06
2018-02-01T08:12:39.532Z,89.76
2018-02-01T08:13:39.391Z,89.31
2018-02-01T08:14:39.429Z,89.86
2018-02-01T08:15:39.513Z,89.25
2018-02-01T08:16:39.674Z,89.45
2018-02-01T08:17:40.159Z,89.47
2018-02-01T08:18:39.459Z,89.69
2018-02-01T08:19:39.394Z,89.35
2018-02-01T08:20:39.370Z,89.36
2018-02-01T08:21:39.468Z,89.37
2018-02-01T08:22:39.452Z,89.68
2018-02-01T08:23:39.596Z,89
2018-02-01T08:24:39.613Z,89.38
2018-02-01T08:25:39.531Z,89.28
2018-02-01T08:26:39.693Z,89.17
2018-02-01T08:27:39.358Z,88.61
2018-02-01T08:28:39.472Z,88.34
2018-02-01T08:29:39.386Z,88.4
2018-02-01T08:30:39.678Z,88.49
2018-02-01T08:31:39.560Z,88.48
2018-02-01T08:32:39.508Z,88.41
2018-02-01T08:33:39.801Z,88.55
2018-02-01T08:34:39.373Z,88.2
2018-02-01T08:35:39.448Z,88.24
2018-02-01T08:36:39.561Z,88.51
2018-02-01T08:37:40.124Z,88.27
2018-02-01T08:38:39.841Z,88.48
2018-02-01T08:39:39.545Z,88.12
2018-02-01T08:40:39.378Z,88.21
2018-02-01T08:41:39.486Z,88.22
2018-02-01T08:42:39.357Z,88.11
2018-02-01T08:43:39.948Z,88.23
2018-02-01T08:44:39.502Z,88.53
2018-02-01T08:45:39.575Z,88.24
2018-02-01T08:46:39.538Z,88.2
2018-02-01T08:47:39.569Z,88.13
2018-02-01T08:48:39.516Z,88.11
2018-02-01T08:49:39.468Z,87.97
2018-02-01T08:50:39.556Z,88.19
2018-02-01T08:51:39.534Z,87.87
2018-02-01T08:52:40.152Z,88.08
2018-02-01T08:53:39.905Z,87.68
2018-02-01T08:54:40.012Z,88.02
2018-02-01T08:55:40.086Z,88.01
2018-02-01T08:56:40.052Z,88.06
2018-02-01T08:57:39.834Z,88.13
2018-02-01T08:58:40.042Z,88.03
2018-02-01T08:59:40.000Z,87.61
2018-02-01T09:00:40.955Z,87.95
2018-02-01T09:01:39.863Z,88.13
2018-02-01T09:02:40.091Z,88
2018-02-01T09:03:40.007Z,87.73
2018-02-01T09:04:40.602Z,87.59
2018-02-01T09:05:39.690Z,87.75
2018-02-01T09:06:40.000Z,87.5
2018-02-01T09:07:39.847Z,88.06
2018-02-01T09:08:40.215Z,88.12
2018-02-01T09:09:39.851Z,88.17
2018-02-01T09:10:40.084Z,87.65
2018-02-01T09:11:39.856Z,88.18
2018-02-01T09:12:39.877Z,88.63
2018-02-01T09:13:39.862Z,88.89
2018-02-01T09:14:40.175Z,89.22
2018-02-01T09:15:39.773Z,88.84
2018-02-01T09:16:39.920Z,88.84
2018-02-01T09:17:40.707Z,89.28
2018-02-01T09:18:39.908Z,89.68
2018-02-01T09:19:39.718Z,90.24
2018-02-01T09:20:39.764Z,89.43
2018-02-01T09:21:39.683Z,89.52
2018-02-01T09:22:41.222Z,89.34
2018-02-01T09:23:39.009Z,89.67
2018-02-01T09:24:38.789Z,89.26
2018-02-01T09:25:39.082Z,89.77
2018-02-01T09:26:38.925Z,90.32
2018-02-01T09:27:39.118Z,90.27
2018-02-01T09:28:39.132Z,90.34
2018-02-01T09:29:38.987Z,90.44
2018-02-01T09:30:38.913Z,89.52
2018-02-01T09:31:38.866Z,89.71
2018-02-01T09:32:39.054Z,90.21
2018-02-01T09:33:38.902Z,90.08
2018-02-01T09:34:39.023Z,89.88
2018-02-01T09:35:39.071Z,89.53
2018-02-01T09:36:39.108Z,89.44
2018-02-01T09:37:39.072Z,89.56
2018-02-01T09:38:40.078Z,89.63
2018-02-01T09:39:39.239Z,89.27
2018-02-01T09:40:38.919Z,89.43
2018-02-01T09:41:39.904Z,89.56
2018-02-01T09:42:39.017Z,89.22
2018-02-01T09:43:39.803Z,89.14
2018-02-01T09:44:39.153Z,89.73
2018-02-01T09:45:38.801Z,89.56
2018-02-01T09:46:39.006Z,89.71
2018-02-01T09:47:38.870Z,89.14
2018-02-01T09:48:39.073Z,89.08
2018-02-01T09:49:39.001Z,89.58
2018-02-01T09:50:39.110Z,89.18
2018-02-01T09:51:39.056Z,89.03
2018-02-01T09:52:38.938Z,88.99
2018-02-01T09:53:39.124Z,88.63
2018-02-01T09:54:39.100Z,88.73
2018-02-01T09:55:39.163Z,88.33
2018-02-01T09:56:39.228Z,88.12
2018-02-01T09:57:38.916Z,88.6
2018-02-01T09:58:39.066Z,88.41
2018-02-01T09:59:39.110Z,88.17
2018-02-01T10:00:39.098Z,88.33
2018-02-01T10:01:39.250Z,87.81
2018-02-01T10:02:39.059Z,88.11
2018-02-01T10:03:39.201Z,88.2
2018-02-01T10:04:39.198Z,88.06
2018-02-01T10:05:39.178Z,88.38
2018-02-01T10:06:39.056Z,88.32
2018-02-01T10:07:39.134Z,88.5
2018-02-01T10:08:39.287Z,87.95
2018-02-01T10:09:39.260Z,87.68
2018-02-01T10:10:39.210Z,87.35
2018-02-01T10:11:39.043Z,87.97
2018-02-01T10:12:39.210Z,87.63
2018-02-01T10:13:39.351Z,88
2018-02-01T10:14:39.210Z,88.28
2018-02-01T10:15:39.195Z,87.71
2018-02-01T10:16:38.971Z,87.09
2018-02-01T10:17:39.182Z,86.02
2018-02-01T10:18:38.929Z,86.11
2018-02-01T10:19:39.091Z,85.83
2018-02-01T10:20:39.131Z,85.7
2018-02-01T10:21:38.954Z,85.65
2018-02-01T10:22:39.004Z,85.67
2018-02-01T10:23:39.297Z,85.86
2018-02-01T10:24:42.676Z,86.61
2018-02-01T10:25:39.280Z,86.28
2018-02-01T10:26:39.172Z,86.12
2018-02-01T10:27:39.189Z,86.37
2018-02-01T10:28:39.129Z,86.26
2018-02-01T10:29:39.204Z,85.73
2018-02-01T10:30:39.142Z,85.7
2018-02-01T10:31:40.219Z,86.06
2018-02-01T10:32:39.174Z,85.73
2018-02-01T10:33:39.042Z,85.25
2018-02-01T10:34:39.166Z,85.27
2018-02-01T10:35:39.681Z,83.67
2018-02-01T10:36:39.267Z,84.22
2018-02-01T10:37:38.989Z,84.45
2018-02-01T10:38:38.936Z,84.66
2018-02-01T10:39:39.126Z,84.61
2018-02-01T10:40:39.272Z,83.93
2018-02-01T10:41:39.137Z,83.86
2018-02-01T10:42:39.367Z,83.24
2018-02-01T10:43:39.018Z,83.31
2018-02-01T10:44:39.379Z,84.05
2018-02-01T10:45:39.245Z,83.61
2018-02-01T10:46:38.948Z,83.35
2018-02-01T10:47:39.172Z,82.42
2018-02-01T10:48:39.269Z,83.1
2018-02-01T10:49:39.088Z,82.49
2018-02-01T10:50:39.115Z,82.25
2018-02-01T10:51:39.187Z,81.09
2018-02-01T10:52:39.125Z,80.87
2018-02-01T10:53:39.049Z,81.39
2018-02-01T10:54:39.219Z,80.84
2018-02-01T10:55:39.182Z,80.34
2018-02-01T10:56:39.099Z,78.75
2018-02-01T10:57:39.447Z,80.04
2018-02-01T10:58:39.395Z,80.68
2018-02-01T10:59:39.416Z,79.25
2018-02-01T11:00:39.411Z,79.37
2018-02-01T11:01:39.462Z,79.39
2018-02-01T11:02:39.129Z,77.34
2018-02-01T11:03:39.090Z,77.06
2018-02-01T11:04:39.256Z,78.74
2018-02-01T11:05:39.160Z,78.46
2018-02-01T11:06:39.426Z,77.28
2018-02-01T11:07:39.533Z,76.79
2018-02-01T11:08:39.327Z,77.14
2018-02-01T11:09:39.318Z,75.3
2018-02-01T11:10:39.318Z,75.9
2018-02-01T11:11:39.202Z,76.68
2018-02-01T11:12:39.646Z,73.54
2018-02-01T11:13:39.301Z,74.88
2018-02-01T11:14:39.228Z,74.46
2018-02-01T11:15:39.237Z,75.69
2018-02-01T11:16:39.303Z,75.52
2018-02-01T11:17:39.323Z,74.9
2018-02-01T11:18:39.207Z,74.71
2018-02-01T11:19:39.058Z,73.79
2018-02-01T11:20:39.394Z,73.7
2018-02-01T11:21:39.109Z,73.03
2018-02-01T11:22:39.308Z,73.63
2018-02-01T11:23:39.425Z,73.46
2018-02-01T11:24:39.299Z,73.69
2018-02-01T11:25:39.125Z,74.5
2018-02-01T11:26:39.167Z,74.5
2018-02-01T11:27:39.289Z,74.63
2018-02-01T11:28:39.140Z,74.48
2018-02-01T11:29:39.276Z,75.42
2018-02-01T11:30:39.213Z,75.08
2018-02-01T11:31:39.306Z,74.66
2018-02-01T11:32:39.068Z,75.35
2018-02-01T11:33:39.161Z,73.73
2018-02-01T11:34:39.443Z,75.26
2018-02-01T11:35:39.277Z,75.76
2018-02-01T11:36:39.677Z,73.94
2018-02-01T11:37:39.183Z,74.58
2018-02-01T11:38:39.284Z,73.3
2018-02-01T11:39:39.048Z,72.22
2018-02-01T11:40:39.568Z,72.87
2018-02-01T11:41:39.436Z,73.05
2018-02-01T11:42:39.320Z,72.74
2018-02-01T11:43:39.194Z,72.42
2018-02-01T11:44:39.160Z,72.24
2018-02-01T11:45:39.294Z,72.64
2018-02-01T11:46:39.388Z,70.91
2018-02-01T11:47:39.293Z,70.36
2018-02-01T11:48:39.248Z,71.16
2018-02-01T11:49:39.253Z,72.02
2018-02-01T11:50:39.326Z,72.25
2018-02-01T11:51:39.121Z,69.58
2018-02-01T11:52:39.346Z,71.06
2018-02-01T11:53:39.263Z,68.83
2018-02-01T11:54:40.660Z,68.99
2018-02-01T11:55:39.260Z,70.15
2018-02-01T11:56:39.538Z,69.45
2018-02-01T11:57:39.270Z,70.62
2018-02-01T11:58:39.452Z,70.18
2018-02-01T11:59:40.289Z,69.3
2018-02-01T12:00:39.493Z,69.37
2018-02-01T12:01:39.400Z,69.74
2018-02-01T12:02:40.105Z,70.26
2018-02-01T12:03:39.257Z,70.14
2018-02-01T12:04:39.470Z,70
2018-02-01T12:05:39.235Z,69.21
2018-02-01T12:06:39.561Z,69.91
2018-02-01T12:07:40.949Z,68.96
2018-02-01T12:08:39.062Z,67.73
2018-02-01T12:09:39.117Z,67.76
2018-02-01T12:10:39.109Z,67.95
2018-02-01T12:11:39.253Z,67.53
2018-02-01T12:12:39.192Z,66.83
2018-02-01T12:13:40.631Z,67.88
2018-02-01T12:14:39.161Z,68.68
2018-02-01T12:15:39.107Z,68.08
2018-02-01T12:16:39.243Z,68.58
2018-02-01T12:17:39.215Z,67.86
2018-02-01T12:18:40.195Z,68.74
2018-02-01T12:19:39.428Z,68.87
2018-02-01T12:20:39.355Z,69.2
2018-02-01T12:21:39.312Z,69.91
2018-02-01T12:22:39.161Z,70
2018-02-01T12:23:41.814Z,70.1
2018-02-01T12:24:38.948Z,69.12
2018-02-01T12:25:38.880Z,69.85
2018-02-01T12:26:38.881Z,68.97
2018-02-01T12:27:39.001Z,70.46
2018-02-01T12:28:39.433Z,70.07
2018-02-01T12:29:39.002Z,69.36
2018-02-01T12:30:39.057Z,70.26
2018-02-01T12:31:39.095Z,70
2018-02-01T12:32:39.036Z,69.5
2018-02-01T12:33:39.221Z,69.75
2018-02-01T12:34:39.058Z,69.58
2018-02-01T12:35:40.116Z,69.7
2018-02-01T12:36:39.211Z,69.52
2018-02-01T12:37:39.229Z,69.17
2018-02-01T12:38:39.238Z,69.52
2018-02-01T12:39:39.286Z,68.9
2018-02-01T12:40:39.165Z,68.28
2018-02-01T12:41:39.371Z,68.14
2018-02-01T12:42:39.161Z,68.85
2018-02-01T12:43:39.076Z,68.82
2018-02-01T12:44:39.261Z,68.96
2018-02-01T12:45:39.384Z,69.15
2018-02-01T12:46:39.920Z,68.72
2018-02-01T12:47:39.134Z,68.73
2018-02-01T12:48:39.080Z,68.48
2018-02-01T12:49:39.201Z,68.68
2018-02-01T12:50:39.333Z,70.17
2018-02-01T12:51:39.236Z,69.82
2018-02-01T12:52:39.269Z,69.29
2018-02-01T12:53:39.316Z,69.12
2018-02-01T12:54:39.390Z,68.95
2018-02-01T12:55:39.454Z,69.81
2018-02-01T12:56:39.450Z,69.83
2018-02-01T12:57:39.564Z,69.45
2018-02-01T12:58:39.396Z,69.55
2018-02-01T12:59:39.281Z,70.04
2018-02-01T13:00:39.350Z,69.91
2018-02-01T13:01:39.347Z,70.26